Time;durP1;ratioP1;P1;durP2;ratioP2;P2;SDS_P1;SDS_P2;PMS_P1;PMS_P2;Temp;Humidity;BMP_temperature;BMP_pressure;BME280_temperature;BME280_humidity;BME280_pressure;Samples;Min_cycle;Max_cycle;Signal;HPM_P1;HPM_P2
2024/01/06 00:01:01;;;;;;;15.47;6.73;;;3.10;99.90;;;;;;4938015;29;20396;-92
2024/01/06 00:03:35;;;;;;;14.50;5.77;;;2.00;99.90;;;;;;4937250;29;20130;-92
2024/01/06 00:06:04;;;;;;;16.27;6.30;;;2.30;99.90;;;;;;4938162;29;20058;-92
2024/01/06 00:08:30;;;;;;;16.47;6.57;;;2.20;99.90;;;;;;4937868;29;20043;-91
2024/01/06 00:11:02;;;;;;;15.97;6.60;;;3.40;99.90;;;;;;4936608;29;20111;-92
2024/01/06 00:13:31;;;;;;;18.30;7.00;;;3.50;99.90;;;;;;4953294;29;20043;-92
2024/01/06 00:16:03;;;;;;;16.13;6.23;;;2.00;99.90;;;;;;4937450;29;20500;-92
2024/01/06 00:18:31;;;;;;;17.43;6.50;;;2.20;99.90;;;;;;4936703;29;20047;-92
2024/01/06 00:21:03;;;;;;;16.77;6.97;;;3.40;99.90;;;;;;4937621;29;20083;-91
2024/01/06 00:23:31;;;;;;;17.00;6.50;;;2.70;99.90;;;;;;4934371;29;20060;-92
2024/01/06 00:26:04;;;;;;;16.80;6.63;;;2.10;99.90;;;;;;4917693;29;20130;-91
2024/01/06 00:28:41;;;;;;;17.43;7.03;;;1.30;99.90;;;;;;4918211;29;20143;-92
2024/01/06 00:31:10;;;;;;;18.37;7.90;;;5.10;99.90;;;;;;4917730;29;20063;-92
2024/01/06 00:33:39;;;;;;;18.80;8.40;;;2.10;99.90;;;;;;4918161;29;20141;-91
2024/01/06 00:36:11;;;;;;;18.67;7.50;;;2.30;99.90;;;;;;4917551;29;20091;-92
2024/01/06 00:38:43;;;;;;;17.60;7.80;;;2.20;99.90;;;;;;4933524;29;20108;-90
2024/01/06 00:41:11;;;;;;;17.63;8.10;;;3.50;99.90;;;;;;4918662;29;20396;-92
2024/01/06 00:43:43;;;;;;;19.87;8.57;;;2.80;99.90;;;;;;4934146;29;20040;-92
2024/01/06 00:46:14;;;;;;;19.00;8.67;;;1.80;99.90;;;;;;4933559;29;20052;-94
2024/01/06 00:48:41;;;;;;;20.87;8.47;;;1.50;99.90;;;;;;4934043;29;20047;-92
2024/01/06 00:51:15;;;;;;;20.47;8.80;;;2.60;99.90;;;;;;4918211;29;20044;-91
2024/01/06 00:53:41;;;;;;;23.27;9.30;;;1.90;99.90;;;;;;4916549;29;20044;-91
2024/01/06 00:56:12;;;;;;;23.77;10.23;;;2.90;99.90;;;;;;4917958;29;20052;-91
2024/01/06 00:58:41;;;;;;;22.20;10.70;;;3.40;99.90;;;;;;4917960;29;20140;-91
2024/01/06 01:01:13;;;;;;;21.23;9.87;;;2.20;99.90;;;;;;4930402;29;20047;-91
2024/01/06 01:03:44;;;;;;;25.13;10.60;;;3.00;99.90;;;;;;4936272;29;20059;-92
2024/01/06 01:06:15;;;;;;;23.57;9.60;;;1.90;99.90;;;;;;4937588;28;20496;-92
2024/01/06 01:08:47;;;;;;;23.40;9.93;;;1.60;99.90;;;;;;4933485;28;20044;-91
2024/01/06 01:11:16;;;;;;;21.60;9.03;;;1.30;99.90;;;;;;4918075;29;20058;-92
2024/01/06 01:13:45;;;;;;;24.53;10.50;;;3.70;99.90;;;;;;4917481;29;20052;-92
2024/01/06 01:16:16;;;;;;;22.80;10.00;;;0.70;99.90;;;;;;4917455;29;20519;-91
2024/01/06 01:18:45;;;;;;;21.93;9.83;;;1.70;99.90;;;;;;4937063;29;20088;-92
2024/01/06 01:21:16;;;;;;;20.27;9.53;;;2.10;99.90;;;;;;4935964;29;20055;-92
2024/01/06 01:23:48;;;;;;;20.57;10.10;;;2.60;99.90;;;;;;4935901;29;20040;-91
2024/01/06 01:26:17;;;;;;;25.43;10.40;;;2.50;99.90;;;;;;4936017;29;20055;-92
2024/01/06 01:28:49;;;;;;;23.67;10.77;;;1.60;99.90;;;;;;4935250;28;20054;-91
2024/01/06 01:31:20;;;;;;;24.40;11.30;;;2.40;99.90;;;;;;4936528;29;20094;-91
2024/01/06 01:33:49;;;;;;;24.83;11.17;;;1.50;99.90;;;;;;4936554;28;20099;-91
2024/01/06 01:36:21;;;;;;;26.23;11.47;;;2.50;99.90;;;;;;4930835;28;20062;-91
2024/01/06 01:38:47;;;;;;;25.27;11.67;;;2.10;99.90;;;;;;4920512;29;20090;-91
2024/01/06 01:41:16;;;;;;;25.27;11.60;;;1.40;99.90;;;;;;4919584;29;20075;-91
2024/01/06 01:43:46;;;;;;;28.73;12.50;;;1.60;99.90;;;;;;4919370;29;20522;-91
2024/01/06 01:46:11;;;;;;;29.40;12.77;;;2.30;99.90;;;;;;4919837;29;20052;-91
2024/01/06 01:48:46;;;;;;;33.17;13.43;;;2.00;99.90;;;;;;4919810;29;20047;-92
2024/01/06 01:51:15;;;;;;;30.37;12.90;;;2.40;99.90;;;;;;4920246;29;20059;-92
2024/01/06 01:53:44;;;;;;;30.37;13.10;;;3.50;99.90;;;;;;4919683;29;20043;-91
2024/01/06 01:56:20;;;;;;;28.87;12.23;;;1.30;99.90;;;;;;4900648;29;20048;-92
2024/01/06 01:58:49;;;;;;;27.97;12.17;;;3.00;99.90;;;;;;4901580;29;20489;-91
2024/01/06 02:01:21;;;;;;;25.40;11.80;;;2.60;99.90;;;;;;4900510;29;20051;-93
2024/01/06 02:03:46;;;;;;;26.87;12.10;;;1.10;99.90;;;;;;4899820;29;20056;-92
2024/01/06 02:06:21;;;;;;;26.27;11.60;;;2.90;99.90;;;;;;4899613;29;20580;-92
2024/01/06 02:08:47;;;;;;;28.27;11.53;;;1.60;99.90;;;;;;4900694;29;20131;-91
2024/01/06 02:11:19;;;;;;;30.67;12.93;;;2.60;99.90;;;;;;4900152;29;20140;-92
2024/01/06 02:13:51;;;;;;;26.97;11.67;;;3.00;99.90;;;;;;4900837;29;20052;-91
2024/01/06 02:16:22;;;;;;;25.80;11.63;;;3.00;99.90;;;;;;4900933;29;20056;-92
2024/01/06 02:18:51;;;;;;;22.70;10.50;;;1.30;99.90;;;;;;4900089;29;20048;-91
2024/01/06 02:21:31;;;;;;;27.17;12.17;;;1.50;99.90;;;;;;4917780;29;20491;-92
2024/01/06 02:24:03;;;;;;;24.97;11.33;;;1.20;99.90;;;;;;4899441;29;20046;-92
2024/01/06 02:26:32;;;;;;;25.20;10.90;;;2.30;99.90;;;;;;4900787;29;20389;-92
2024/01/06 02:29:12;;;;;;;23.50;10.50;;;1.90;99.90;;;;;;4900720;29;20131;-92
2024/01/06 02:31:37;;;;;;;26.60;11.13;;;2.70;99.90;;;;;;4899452;29;20044;-92
2024/01/06 02:34:03;;;;;;;25.87;11.50;;;1.30;99.90;;;;;;4900331;29;20428;-91
2024/01/06 02:37:22;;;;;;;25.33;11.27;;;1.50;99.90;;;;;;4900152;29;20060;-92
2024/01/06 02:39:47;;;;;;;25.93;11.03;;;0.90;99.90;;;;;;4899241;29;20091;-91
2024/01/06 02:42:13;;;;;;;25.90;11.40;;;1.20;99.90;;;;;;4900896;29;20110;-92
2024/01/06 02:44:45;;;;;;;28.50;12.43;;;1.70;99.90;;;;;;4900583;29;20048;-91
2024/01/06 02:47:13;;;;;;;28.20;12.83;;;2.10;99.90;;;;;;4900211;29;20047;-92
2024/01/06 02:49:43;;;;;;;29.00;12.73;;;1.30;99.90;;;;;;4900386;29;20094;-91
2024/01/06 02:52:14;;;;;;;29.00;12.80;;;2.30;99.90;;;;;;4906476;29;20087;-92
2024/01/06 02:54:43;;;;;;;28.60;12.50;;;2.30;99.90;;;;;;4900498;29;20135;-92
2024/01/06 02:57:18;;;;;;;30.60;13.07;;;2.70;99.90;;;;;;4900569;29;20131;-92
2024/01/06 02:59:46;;;;;;;32.13;12.90;;;0.90;99.90;;;;;;4915531;29;20526;-92
2024/01/06 03:02:16;;;;;;;28.63;12.07;;;1.10;99.90;;;;;;4900023;29;20059;-91
2024/01/06 03:04:45;;;;;;;33.20;12.97;;;2.90;99.90;;;;;;4899820;29;20044;-91
2024/01/06 03:07:20;;;;;;;33.30;12.13;;;0.90;99.90;;;;;;4898550;29;20084;-91
2024/01/06 03:09:54;;;;;;;26.73;11.53;;;2.60;99.90;;;;;;4899987;29;20048;-91
2024/01/06 03:12:26;;;;;;;27.87;12.87;;;0.90;99.90;;;;;;4900162;29;20062;-91
2024/01/06 03:14:58;;;;;;;27.50;12.13;;;3.00;99.90;;;;;;4899429;29;20396;-91
2024/01/06 03:17:30;;;;;;;28.73;12.67;;;1.40;99.90;;;;;;4899784;29;20080;-92
2024/01/06 03:19:57;;;;;;;32.47;13.30;;;1.00;99.90;;;;;;4898901;29;20051;-91
2024/01/06 03:22:23;;;;;;;30.67;11.83;;;0.90;99.90;;;;;;4900193;29;20374;-91
2024/01/06 03:24:54;;;;;;;29.90;12.80;;;1.30;99.90;;;;;;4899905;29;20103;-91
2024/01/06 03:27:23;;;;;;;25.37;11.63;;;2.60;99.90;;;;;;4899351;29;20044;-91
2024/01/06 03:29:54;;;;;;;25.10;10.97;;;0.80;99.90;;;;;;4899552;29;20074;-92
2024/01/06 03:32:28;;;;;;;24.33;10.10;;;2.00;99.90;;;;;;4899658;29;20048;-91
2024/01/06 03:34:53;;;;;;;27.38;10.65;;;0.80;99.90;;;;;;4914598;29;20048;-91
2024/01/06 03:37:22;;;;;;;27.47;11.13;;;1.70;99.90;;;;;;4899904;29;20056;-92
2024/01/06 03:39:55;;;;;;;26.33;11.70;;;1.90;99.90;;;;;;4899527;29;20052;-91
2024/01/06 03:42:26;;;;;;;26.80;11.83;;;2.30;99.90;;;;;;4899218;29;20050;-91
2024/01/06 03:44:55;;;;;;;30.63;11.30;;;0.70;99.90;;;;;;4899675;29;20130;-91
2024/01/06 03:47:27;;;;;;;29.77;11.97;;;2.00;99.90;;;;;;4908989;29;20075;-91
2024/01/06 03:49:53;;;;;;;26.33;11.80;;;0.70;99.90;;;;;;4918132;29;20044;-92
2024/01/06 03:52:25;;;;;;;26.00;11.23;;;1.70;99.90;;;;;;4918820;29;20050;-91
2024/01/06 03:54:53;;;;;;;28.33;12.27;;;1.50;99.90;;;;;;4918461;29;20051;-91
2024/01/06 03:57:28;;;;;;;26.93;11.07;;;0.70;99.90;;;;;;4918204;29;20036;-91
2024/01/06 03:59:54;;;;;;;25.50;10.83;;;1.90;99.90;;;;;;4918131;29;20513;-91
2024/01/06 04:02:25;;;;;;;28.27;11.03;;;1.80;99.90;;;;;;4917515;29;20075;-92
2024/01/06 04:04:53;;;;;;;31.17;11.73;;;1.90;99.90;;;;;;4919017;29;20157;-91
2024/01/06 04:07:25;;;;;;;27.90;11.10;;;0.90;99.90;;;;;;4918547;29;20044;-92
2024/01/06 04:09:54;;;;;;;23.17;9.50;;;2.60;99.90;;;;;;4918193;29;20044;-91
2024/01/06 04:12:23;;;;;;;22.73;9.97;;;1.80;99.90;;;;;;4918255;29;20051;-91
2024/01/06 04:14:54;;;;;;;21.63;9.60;;;2.70;99.90;;;;;;4918377;29;20472;-92
2024/01/06 04:17:28;;;;;;;22.60;9.73;;;1.30;99.90;;;;;;4917614;29;20039;-92
2024/01/06 04:19:56;;;;;;;20.13;8.67;;;0.60;99.90;;;;;;4917683;29;20135;-92
2024/01/06 04:22:31;;;;;;;26.37;9.80;;;2.10;99.90;;;;;;4917740;29;20094;-92
2024/01/06 04:25:03;;;;;;;20.00;9.40;;;1.10;99.90;;;;;;4917777;29;20051;-92
2024/01/06 04:27:40;;;;;;;20.13;8.77;;;0.90;99.90;;;;;;4918691;29;20051;-91
2024/01/06 04:30:09;;;;;;;24.87;10.07;;;1.30;99.90;;;;;;4921412;29;20150;-91
2024/01/06 04:32:38;;;;;;;24.17;10.27;;;0.80;99.90;;;;;;4921625;29;20123;-91
2024/01/06 04:35:13;;;;;;;25.33;10.93;;;1.50;99.90;;;;;;4921468;29;20454;-92
2024/01/06 04:37:51;;;;;;;21.07;9.20;;;1.20;99.90;;;;;;4920724;29;20058;-91
2024/01/06 04:40:19;;;;;;;23.30;10.27;;;2.00;99.90;;;;;;4947905;23;20048;-91
2024/01/06 04:42:45;;;;;;;25.03;10.20;;;0.90;99.90;;;;;;4936998;29;20435;-91
2024/01/06 04:45:11;;;;;;;23.13;9.63;;;0.90;99.90;;;;;;4936616;29;20142;-90
2024/01/06 04:47:36;;;;;;;22.43;9.83;;;0.90;99.90;;;;;;4937574;29;20043;-92
2024/01/06 04:50:03;;;;;;;34.80;10.60;;;0.80;99.90;;;;;;4936754;29;20052;-92
2024/01/06 04:52:29;;;;;;;24.67;10.93;;;0.90;99.90;;;;;;4952267;28;20051;-92
2024/01/06 04:54:55;;;;;;;22.10;9.77;;;0.80;99.90;;;;;;4936952;29;20043;-91
2024/01/06 04:57:36;;;;;;;24.77;10.50;;;0.80;99.90;;;;;;4936697;29;20512;-92
2024/01/06 05:00:04;;;;;;;27.37;10.87;;;1.80;99.90;;;;;;4935935;29;20135;-92
2024/01/06 05:02:39;;;;;;;27.37;11.33;;;0.80;99.90;;;;;;4943714;29;20035;-91
2024/01/06 05:05:05;;;;;;;27.77;11.03;;;2.10;99.90;;;;;;4935864;28;20043;-91
2024/01/06 05:07:31;;;;;;;27.90;11.70;;;0.80;99.90;;;;;;4935985;29;20514;-92
2024/01/06 05:09:57;;;;;;;26.87;11.40;;;0.60;99.90;;;;;;4936920;29;20158;-92
2024/01/06 05:12:25;;;;;;;26.23;11.27;;;0.60;99.90;;;;;;4936755;29;20051;-90
2024/01/06 05:14:53;;;;;;;25.13;11.00;;;1.60;99.90;;;;;;4936845;29;20511;-92
2024/01/06 05:17:22;;;;;;;29.47;11.83;;;0.20;99.90;;;;;;4936473;29;20484;-92
2024/01/06 05:19:47;;;;;;;27.17;10.97;;;2.50;99.90;;;;;;4936000;29;20106;-92
2024/01/06 05:22:13;;;;;;;26.60;11.10;;;0.90;99.90;;;;;;4936049;29;20433;-91
2024/01/06 05:24:46;;;;;;;23.03;10.20;;;0.40;99.90;;;;;;4936470;29;20078;-92
2024/01/06 05:27:17;;;;;;;25.67;10.57;;;-0.30;99.90;;;;;;4935777;29;20051;-92
2024/01/06 05:29:46;;;;;;;28.13;11.17;;;1.00;99.90;;;;;;4936286;29;20055;-92
2024/01/06 05:32:15;;;;;;;28.43;11.60;;;1.90;99.90;;;;;;4936259;29;20095;-92
2024/01/06 05:34:41;;;;;;;29.90;12.63;;;0.00;99.90;;;;;;4935741;29;20462;-91
2024/01/06 05:37:09;;;;;;;31.30;11.57;;;0.70;99.90;;;;;;4936187;29;20120;-91
2024/01/06 05:39:39;;;;;;;27.53;11.37;;;1.00;99.90;;;;;;4936688;29;20039;-92
2024/01/06 05:42:15;;;;;;;28.00;11.50;;;1.80;99.90;;;;;;4938744;29;20051;-92
2024/01/06 05:44:41;;;;;;;29.93;12.33;;;0.40;99.90;;;;;;4939166;29;20114;-92
2024/01/06 05:47:09;;;;;;;31.93;12.07;;;1.10;99.90;;;;;;4939298;29;20043;-92
2024/01/06 05:49:43;;;;;;;30.50;12.13;;;1.70;99.90;;;;;;4938484;29;20054;-92
2024/01/06 05:52:11;;;;;;;31.10;11.57;;;0.30;99.90;;;;;;4938949;29;20097;-92
2024/01/06 05:54:41;;;;;;;29.33;11.83;;;0.40;99.90;;;;;;4938859;29;20078;-91
2024/01/06 05:57:07;;;;;;;30.77;11.80;;;0.40;99.90;;;;;;4938795;29;20039;-92
2024/01/06 05:59:36;;;;;;;35.30;13.07;;;0.60;99.90;;;;;;4939224;29;20559;-92
2024/01/06 06:02:07;;;;;;;35.23;12.37;;;0.90;99.90;;;;;;4937613;29;20043;-92
2024/01/06 06:04:39;;;;;;;31.33;12.37;;;1.10;99.90;;;;;;4939041;29;20558;-92
2024/01/06 06:07:04;;;;;;;31.40;12.10;;;0.30;99.90;;;;;;4938755;29;20059;-92
2024/01/06 06:09:37;;;;;;;29.17;12.10;;;2.00;99.90;;;;;;4938560;29;20055;-92
2024/01/06 06:12:03;;;;;;;30.50;11.70;;;0.90;99.90;;;;;;4938482;29;20039;-92
2024/01/06 06:14:35;;;;;;;30.40;11.33;;;0.60;99.90;;;;;;4938898;29;20059;-91
2024/01/06 06:17:03;;;;;;;35.23;12.20;;;2.20;99.90;;;;;;4937710;29;20047;-93
2024/01/06 06:19:32;;;;;;;31.90;12.40;;;-0.30;99.90;;;;;;4938790;29;20051;-92
2024/01/06 06:21:58;;;;;;;30.70;11.77;;;2.30;99.90;;;;;;4938732;29;20047;-92
2024/01/06 06:24:33;;;;;;;29.67;11.00;;;0.80;99.90;;;;;;4937588;29;20086;-91
2024/01/06 06:26:58;;;;;;;25.83;10.73;;;1.70;99.90;;;;;;4956624;28;20374;-92
2024/01/06 06:29:30;;;;;;;31.70;11.97;;;2.10;99.90;;;;;;4958324;28;20043;-92
2024/01/06 06:32:02;;;;;;;28.70;10.97;;;1.80;99.90;;;;;;4956429;28;20042;-91
2024/01/06 06:34:34;;;;;;;30.60;11.50;;;0.60;99.90;;;;;;4957373;28;20074;-91
2024/01/06 06:37:06;;;;;;;30.23;11.27;;;2.50;99.90;;;;;;4956881;28;20386;-92
2024/01/06 06:39:37;;;;;;;30.20;11.87;;;2.00;99.90;;;;;;4957390;28;20051;-91
2024/01/06 06:42:54;;;;;;;30.27;11.90;;;2.70;99.90;;;;;;4956968;28;20085;-92
2024/01/06 06:45:22;;;;;;;30.97;11.33;;;0.70;99.90;;;;;;4955839;28;20053;-90
2024/01/06 06:47:50;;;;;;;33.30;11.43;;;0.30;99.90;;;;;;4944719;29;20098;-91
2024/01/06 06:50:17;;;;;;;29.20;12.37;;;2.50;99.90;;;;;;4937292;29;20059;-91
2024/01/06 06:52:49;;;;;;;31.63;11.60;;;-0.70;99.90;;;;;;4922320;29;20058;-91
2024/01/06 06:55:20;;;;;;;36.97;12.50;;;1.40;99.90;;;;;;4918983;29;20048;-92
2024/01/06 06:57:51;;;;;;;33.27;12.07;;;1.90;99.90;;;;;;4936644;29;20102;-91
2024/01/06 07:00:26;;;;;;;28.70;12.23;;;1.10;99.90;;;;;;4918602;29;20049;-90
2024/01/06 07:02:52;;;;;;;28.70;11.27;;;0.70;99.90;;;;;;4924242;29;20090;-92
2024/01/06 07:05:24;;;;;;;22.37;8.63;;;0.50;99.90;;;;;;4936830;29;20459;-87
2024/01/06 07:07:49;;;;;;;18.80;8.50;;;0.50;99.90;;;;;;4937601;29;20054;-87
2024/01/06 07:10:32;;;;;;;22.23;8.87;;;0.50;99.90;;;;;;4937101;29;20047;-87
2024/01/06 07:13:01;;;;;;;23.47;8.90;;;0.40;99.90;;;;;;4936525;29;20054;-88
2024/01/06 07:15:27;;;;;;;22.90;8.60;;;2.40;99.90;;;;;;4937053;29;20039;-89
2024/01/06 07:17:58;;;;;;;21.53;8.90;;;0.30;99.90;;;;;;4937182;29;20551;-89
2024/01/06 07:20:35;;;;;;;20.07;7.80;;;0.20;99.90;;;;;;4936659;29;20094;-89
2024/01/06 07:23:10;;;;;;;20.50;7.70;;;0.00;99.90;;;;;;4936971;29;20632;-91
2024/01/06 07:25:39;;;;;;;20.90;8.70;;;0.30;99.90;;;;;;4937471;29;20534;-90
2024/01/06 07:28:10;;;;;;;18.30;7.97;;;0.10;99.90;;;;;;4937880;29;20035;-91
2024/01/06 07:30:45;;;;;;;31.17;13.03;;;0.10;99.90;;;;;;4940255;29;20051;-93
2024/01/06 07:33:20;;;;;;;34.33;14.40;;;1.10;99.90;;;;;;4937791;29;20130;-91
2024/01/06 07:35:55;;;;;;;31.73;13.50;;;1.40;99.90;;;;;;4938984;29;20074;-90
2024/01/06 07:38:30;;;;;;;36.20;13.77;;;0.10;99.90;;;;;;4938322;29;20043;-88
2024/01/06 07:41:30;;;;;;;31.50;14.07;;;0.50;99.90;;;;;;4934220;29;20052;-90
2024/01/06 07:43:56;;;;;;;31.47;14.33;;;0.20;99.90;;;;;;4900930;29;20051;-88
2024/01/06 07:46:48;;;;;;;30.30;13.80;;;0.10;99.90;;;;;;4934281;29;20134;-88
2024/01/06 07:49:17;;;;;;;32.93;14.33;;;0.70;99.90;;;;;;4910960;29;20052;-89
2024/01/06 07:51:55;;;;;;;32.03;14.83;;;0.10;99.90;;;;;;4934314;29;20047;-88
2024/01/06 07:54:30;;;;;;;31.93;13.87;;;0.10;99.90;;;;;;4933878;28;20559;-88
2024/01/06 07:57:11;;;;;;;28.40;13.83;;;-0.40;99.90;;;;;;4933751;29;20079;-88
2024/01/06 07:59:43;;;;;;;28.07;12.37;;;0.10;99.90;;;;;;4934280;28;20130;-90
2024/01/06 08:02:15;;;;;;;28.93;13.30;;;0.10;99.90;;;;;;4933384;29;20054;-89
2024/01/06 08:04:41;;;;;;;31.23;14.17;;;0.30;99.90;;;;;;4937389;29;20385;-89
2024/01/06 08:07:10;;;;;;;32.07;14.10;;;0.10;99.90;;;;;;4937768;29;20112;-89
2024/01/06 08:09:35;;;;;;;29.43;13.10;;;0.10;99.90;;;;;;4936942;29;20127;-90
2024/01/06 08:12:03;;;;;;;28.30;14.00;;;0.10;99.90;;;;;;4937737;29;20164;-89
2024/01/06 08:14:28;;;;;;;28.27;12.93;;;0.30;99.90;;;;;;4937517;28;20057;-89
2024/01/06 08:16:54;;;;;;;27.97;13.53;;;0.30;99.90;;;;;;4936136;29;20058;-88
2024/01/06 08:19:20;;;;;;;30.43;13.90;;;0.30;99.90;;;;;;4937172;28;20129;-89
2024/01/06 08:21:47;;;;;;;30.13;14.03;;;0.30;99.90;;;;;;4937334;29;20051;-89
2024/01/06 08:24:12;;;;;;;29.03;14.60;;;0.30;99.90;;;;;;4935990;28;20542;-89
2024/01/06 08:26:38;;;;;;;28.53;14.23;;;0.30;99.90;;;;;;4937022;29;20044;-85
2024/01/06 08:29:04;;;;;;;30.77;14.80;;;0.30;99.90;;;;;;4936598;29;20087;-85
2024/01/06 08:31:29;;;;;;;32.03;14.53;;;0.30;99.90;;;;;;4938330;29;20047;-88
2024/01/06 08:33:55;;;;;;;29.83;14.33;;;0.30;99.90;;;;;;4936510;29;20087;-89
2024/01/06 08:36:21;;;;;;;29.83;14.73;;;0.40;99.90;;;;;;4936564;29;20043;-87
2024/01/06 08:38:47;;;;;;;36.83;14.63;;;0.40;99.90;;;;;;4936400;28;20511;-88
2024/01/06 08:41:13;;;;;;;31.70;14.63;;;0.40;99.90;;;;;;4936189;29;20059;-88
2024/01/06 08:43:39;;;;;;;31.80;14.10;;;0.40;99.90;;;;;;4936045;29;20055;-87
2024/01/06 08:46:05;;;;;;;28.23;12.50;;;0.40;99.90;;;;;;4936585;29;20040;-88
2024/01/06 08:48:31;;;;;;;28.63;14.13;;;0.20;99.90;;;;;;4936768;28;20094;-87
2024/01/06 08:50:57;;;;;;;29.87;14.43;;;0.40;99.90;;;;;;4935730;29;20477;-87
2024/01/06 08:53:22;;;;;;;29.43;14.07;;;0.40;99.90;;;;;;4933082;29;20043;-88
2024/01/06 08:55:48;;;;;;;29.03;14.03;;;0.50;99.90;;;;;;4936571;29;20138;-88
2024/01/06 08:58:13;;;;;;;29.30;14.60;;;0.50;99.90;;;;;;4935539;29;20404;-87
2024/01/06 09:00:39;;;;;;;29.37;14.33;;;0.50;99.90;;;;;;4936118;29;20052;-88
2024/01/06 09:03:05;;;;;;;29.50;14.07;;;0.50;99.90;;;;;;4935983;29;20399;-87
2024/01/06 09:05:30;;;;;;;29.40;15.20;;;0.50;99.90;;;;;;4935691;29;20047;-87
2024/01/06 09:07:56;;;;;;;31.07;15.40;;;0.50;99.90;;;;;;4936315;29;20098;-87
2024/01/06 09:10:21;;;;;;;26.13;13.27;;;0.60;99.90;;;;;;4936275;29;20055;-87
2024/01/06 09:12:47;;;;;;;26.13;13.20;;;0.60;99.90;;;;;;4930991;29;20055;-87
2024/01/06 09:15:13;;;;;;;26.90;13.63;;;0.50;99.90;;;;;;4935709;29;20058;-87
2024/01/06 09:17:38;;;;;;;28.33;14.10;;;1.10;99.90;;;;;;4945951;29;20059;-87
2024/01/06 09:20:06;;;;;;;27.00;14.00;;;0.60;99.90;;;;;;4954153;29;20051;-88
2024/01/06 09:22:32;;;;;;;28.80;14.00;;;2.10;99.90;;;;;;4954965;28;20070;-87
2024/01/06 09:24:57;;;;;;;29.40;14.57;;;0.60;99.90;;;;;;4954781;29;20056;-87
2024/01/06 09:27:23;;;;;;;25.50;13.63;;;0.60;99.90;;;;;;4954197;29;20039;-87
2024/01/06 09:29:50;;;;;;;29.03;14.87;;;0.60;99.90;;;;;;4954746;29;20134;-87
2024/01/06 09:32:16;;;;;;;28.33;13.70;;;0.60;99.90;;;;;;4953622;29;20134;-87
2024/01/06 09:34:42;;;;;;;28.23;14.30;;;0.60;99.90;;;;;;4954742;29;20531;-90
2024/01/06 09:37:07;;;;;;;29.63;14.77;;;0.60;99.90;;;;;;4955243;28;20043;-88
2024/01/06 09:39:33;;;;;;;29.00;13.90;;;0.70;99.90;;;;;;4970888;28;20385;-88
2024/01/06 09:41:58;;;;;;;25.97;13.23;;;0.70;99.90;;;;;;4953061;29;20055;-89
2024/01/06 09:44:24;;;;;;;27.23;14.07;;;0.70;99.90;;;;;;4954873;29;20180;-87
2024/01/06 09:46:50;;;;;;;27.00;14.10;;;0.60;99.90;;;;;;4953883;29;20482;-87
2024/01/06 09:49:28;;;;;;;27.07;13.97;;;0.60;99.90;;;;;;4954589;28;20050;-87
2024/01/06 09:51:59;;;;;;;30.33;14.73;;;0.60;99.90;;;;;;4970479;28;20055;-87
2024/01/06 09:54:29;;;;;;;26.77;14.13;;;0.60;99.90;;;;;;4953989;29;20470;-88
2024/01/06 09:56:56;;;;;;;27.47;14.13;;;0.50;99.90;;;;;;4953972;28;20051;-88
2024/01/06 09:59:22;;;;;;;27.73;13.87;;;0.70;99.90;;;;;;4954254;29;20043;-88
2024/01/06 10:01:49;;;;;;;25.57;13.63;;;0.60;99.90;;;;;;4953485;29;20050;-88
2024/01/06 10:04:15;;;;;;;27.53;14.40;;;0.60;99.90;;;;;;4953775;28;20043;-87
2024/01/06 10:06:41;;;;;;;28.40;14.53;;;0.60;99.90;;;;;;4954052;28;20106;-88
2024/01/06 10:09:07;;;;;;;26.83;14.03;;;0.70;99.90;;;;;;4953246;29;20051;-88
2024/01/06 10:11:36;;;;;;;27.80;14.30;;;0.70;99.90;;;;;;4954160;28;20082;-88
2024/01/06 10:14:03;;;;;;;27.80;14.53;;;0.70;99.90;;;;;;4969667;28;20490;-88
2024/01/06 10:16:29;;;;;;;27.93;14.43;;;0.70;99.90;;;;;;4953614;28;20043;-87
2024/01/06 10:18:54;;;;;;;28.57;14.47;;;0.70;99.90;;;;;;4954159;28;20502;-88
2024/01/06 10:21:21;;;;;;;29.63;15.13;;;0.80;99.90;;;;;;4954263;29;20040;-88
2024/01/06 10:23:48;;;;;;;29.87;15.17;;;0.80;99.90;;;;;;4953089;29;20125;-88
2024/01/06 10:26:14;;;;;;;27.80;14.40;;;0.80;99.90;;;;;;4952740;28;20047;-89
2024/01/06 10:28:41;;;;;;;25.60;14.20;;;0.70;99.90;;;;;;4953146;28;20051;-90
2024/01/06 10:31:08;;;;;;;28.83;15.17;;;0.80;99.90;;;;;;4927588;29;20051;-89
2024/01/06 10:33:34;;;;;;;28.30;14.37;;;0.70;99.90;;;;;;4932191;29;20033;-88
2024/01/06 10:36:00;;;;;;;28.83;15.47;;;0.70;99.90;;;;;;4930284;29;20122;-88
2024/01/06 10:38:26;;;;;;;28.00;15.07;;;0.60;99.90;;;;;;4947678;29;20039;-88
2024/01/06 10:41:07;;;;;;;29.30;14.80;;;0.70;99.90;;;;;;4923159;29;20056;-90
2024/01/06 10:43:37;;;;;;;28.30;15.93;;;0.70;99.90;;;;;;4924326;29;20051;-88
2024/01/06 10:46:04;;;;;;;28.93;14.40;;;0.70;99.90;;;;;;4947945;29;20035;-88
2024/01/06 10:48:34;;;;;;;27.77;15.10;;;0.70;99.90;;;;;;4949660;29;20381;-88
2024/01/06 10:51:07;;;;;;;27.07;14.70;;;0.60;99.90;;;;;;4931240;29;20048;-88
2024/01/06 10:53:36;;;;;;;27.67;14.90;;;0.60;99.90;;;;;;4937920;29;20039;-88
2024/01/06 10:56:01;;;;;;;28.30;14.27;;;0.60;99.90;;;;;;4935477;29;20083;-89
2024/01/06 10:58:28;;;;;;;27.53;14.53;;;0.60;99.90;;;;;;4933852;29;20118;-89
2024/01/06 11:00:56;;;;;;;28.50;14.83;;;0.60;99.90;;;;;;4934055;29;20051;-90
2024/01/06 11:03:23;;;;;;;27.00;14.83;;;0.60;99.90;;;;;;4934620;29;20040;-91
2024/01/06 11:05:48;;;;;;;25.07;13.80;;;0.60;99.90;;;;;;4933903;29;20142;-90
2024/01/06 11:08:17;;;;;;;28.40;15.00;;;0.60;99.90;;;;;;4933865;29;20135;-90
2024/01/06 11:10:44;;;;;;;25.83;13.53;;;0.60;99.90;;;;;;4931442;28;20187;-89
2024/01/06 11:13:20;;;;;;;26.87;14.37;;;0.60;99.90;;;;;;4933126;28;20051;-90
2024/01/06 11:15:48;;;;;;;28.27;15.60;;;0.70;99.90;;;;;;4941780;28;20039;-91
2024/01/06 11:18:43;;;;;;;26.30;14.33;;;0.70;99.90;;;;;;4933347;29;20392;-90
2024/01/06 11:21:17;;;;;;;26.03;14.13;;;0.70;99.90;;;;;;4945329;29;20074;-90
2024/01/06 11:23:43;;;;;;;;;;;0.70;99.90;;;;;;4955848;29;20115;-90
2024/01/06 11:26:09;;;;;;;28.87;16.13;;;2.00;99.90;;;;;;4953132;28;20394;-90
2024/01/06 11:28:47;;;;;;;28.23;15.20;;;0.70;99.90;;;;;;4954197;28;20062;-90
2024/01/06 11:31:13;;;;;;;26.73;14.63;;;0.70;99.90;;;;;;4968806;28;20134;-90
2024/01/06 11:33:43;;;;;;;27.60;15.47;;;0.70;99.90;;;;;;4968496;28;20225;-90
2024/01/06 11:36:12;;;;;;;26.77;14.03;;;0.70;99.90;;;;;;4952290;28;20493;-90
2024/01/06 11:38:39;;;;;;;27.50;14.53;;;0.70;99.90;;;;;;4935979;29;20040;-92
2024/01/06 11:41:07;;;;;;;29.30;15.10;;;0.70;99.90;;;;;;4937088;29;20056;-88
2024/01/06 11:43:39;;;;;;;27.70;14.77;;;0.70;99.90;;;;;;4937863;28;20122;-92
2024/01/06 11:46:07;;;;;;;26.63;14.07;;;0.70;99.90;;;;;;4938742;29;20381;-95
2024/01/06 11:48:33;;;;;;;26.13;14.53;;;0.70;99.90;;;;;;4938701;29;20484;-94
2024/01/06 11:50:59;;;;;;;26.93;14.47;;;0.70;99.90;;;;;;4938492;29;20143;-93
2024/01/06 11:53:27;;;;;;;24.77;13.70;;;0.70;99.90;;;;;;4937959;29;20043;-94
2024/01/06 11:55:53;;;;;;;27.57;14.70;;;0.60;99.90;;;;;;4930762;29;20074;-93
2024/01/06 11:58:21;;;;;;;28.10;14.93;;;0.70;99.90;;;;;;4919396;29;20099;-94
2024/01/06 12:00:59;;;;;;;26.90;14.43;;;1.40;99.90;;;;;;4917990;29;20055;-89
2024/01/06 12:03:26;;;;;;;29.67;15.20;;;0.70;99.90;;;;;;4919264;29;20459;-94
2024/01/06 12:06:02;;;;;;;27.53;14.77;;;0.60;99.90;;;;;;4918714;29;20044;-88
2024/01/06 12:08:29;;;;;;;26.83;14.77;;;0.80;99.90;;;;;;4916824;29;20122;-89
2024/01/06 12:11:04;;;;;;;28.20;14.87;;;0.80;99.90;;;;;;4917773;29;20048;-90
2024/01/06 12:13:31;;;;;;;27.63;14.70;;;0.70;99.90;;;;;;4933886;29;20507;-90
2024/01/06 12:15:56;;;;;;;28.53;15.30;;;0.70;99.90;;;;;;4917491;29;20083;-89
2024/01/06 12:18:24;;;;;;;27.80;15.07;;;0.60;99.90;;;;;;4918210;29;20134;-89
2024/01/06 12:20:50;;;;;;;29.30;15.80;;;0.60;99.90;;;;;;4933853;29;20052;-88
2024/01/06 12:23:27;;;;;;;29.87;14.97;;;0.60;99.90;;;;;;4932954;29;20103;-89
2024/01/06 12:25:53;;;;;;;30.90;16.37;;;0.60;99.90;;;;;;4917787;29;20054;-89
2024/01/06 12:28:19;;;;;;;28.80;15.27;;;0.60;99.90;;;;;;4917896;29;20044;-89
2024/01/06 12:30:45;;;;;;;27.67;15.37;;;0.60;99.90;;;;;;4917327;29;20142;-90
2024/01/06 12:33:10;;;;;;;32.00;16.00;;;0.70;99.90;;;;;;4917678;29;20056;-90
2024/01/06 12:35:38;;;;;;;28.93;15.67;;;0.70;99.90;;;;;;4917532;29;20393;-89
2024/01/06 12:38:07;;;;;;;28.50;15.07;;;0.60;99.90;;;;;;4917695;29;20052;-92
2024/01/06 12:40:32;;;;;;;30.33;15.37;;;0.70;99.90;;;;;;4933638;29;20139;-89
2024/01/06 12:42:58;;;;;;;25.43;13.47;;;0.70;99.90;;;;;;4916727;29;20155;-89
2024/01/06 12:45:23;;;;;;;28.30;15.40;;;0.60;99.90;;;;;;4927697;29;20043;-89
2024/01/06 12:47:49;;;;;;;26.80;14.53;;;0.60;99.90;;;;;;4936438;29;20054;-88
2024/01/06 12:50:15;;;;;;;25.37;13.57;;;0.60;99.90;;;;;;4935329;29;20047;-90